createdAt,value
2022-08-17T00:01:51.581Z,98804.66
2022-08-17T00:04:19.875Z,98796.00
2022-08-17T00:06:48.616Z,98808.00
2022-08-17T00:09:18.774Z,98803.47
2022-08-17T00:12:42.317Z,98801.34
2022-08-17T00:14:35.123Z,98812.53
2022-08-17T00:17:03.705Z,98797.31
2022-08-17T00:19:32.507Z,98795.50
2022-08-17T00:22:32.379Z,98799.31
2022-08-17T00:24:47.539Z,98801.56
2022-08-17T00:27:14.102Z,98788.50
2022-08-17T00:29:41.127Z,98793.47
2022-08-17T00:33:14.246Z,98806.88
2022-08-17T00:34:54.465Z,98799.91
2022-08-17T00:37:21.033Z,98799.53
2022-08-17T00:39:47.722Z,98800.19
2022-08-17T00:42:16.182Z,98802.00
2022-08-17T00:44:42.866Z,98809.44
2022-08-17T00:47:09.514Z,98801.38
2022-08-17T00:49:36.080Z,98804.22
2022-08-17T00:52:10.808Z,98807.84
2022-08-17T00:54:41.795Z,98811.44
2022-08-17T00:57:11.850Z,98800.44
2022-08-17T00:59:42.784Z,98803.47
2022-08-17T01:02:12.664Z,98806.47
2022-08-17T01:04:39.537Z,98805.94
2022-08-17T01:07:06.705Z,98813.91
2022-08-17T01:09:33.773Z,98813.69
2022-08-17T01:12:00.534Z,98811.88
2022-08-17T01:14:27.257Z,98806.47
2022-08-17T01:16:55.510Z,98807.38
2022-08-17T01:19:29.566Z,98802.84
2022-08-17T01:22:11.175Z,98811.59
2022-08-17T01:24:47.655Z,98806.00
2022-08-17T01:27:16.053Z,98805.84
2022-08-17T01:29:48.824Z,98813.50
2022-08-17T01:32:15.750Z,98803.81
2022-08-17T01:34:50.088Z,98816.38
2022-08-17T01:37:19.117Z,98814.53
2022-08-17T01:39:51.476Z,98807.56
2022-08-17T01:42:29.850Z,98817.09
2022-08-17T01:44:58.878Z,98827.72
2022-08-17T01:47:25.828Z,98817.16
2022-08-17T01:49:52.451Z,98827.50
2022-08-17T01:52:19.522Z,98824.56
2022-08-17T01:54:47.363Z,98826.75
2022-08-17T01:57:14.102Z,98821.63
2022-08-17T01:59:40.749Z,98820.09
2022-08-17T02:02:07.626Z,98828.81
2022-08-17T02:04:34.819Z,98826.66
2022-08-17T02:07:01.406Z,98823.13
2022-08-17T02:09:29.517Z,98814.31
2022-08-17T02:11:58.640Z,98825.50
2022-08-17T02:14:25.910Z,98826.59
2022-08-17T02:16:53.035Z,98826.97
2022-08-17T02:19:20.303Z,98828.09
2022-08-17T02:21:48.930Z,98821.44
2022-08-17T02:24:58.741Z,98825.28
2022-08-17T02:27:06.841Z,98829.88
2022-08-17T02:29:33.492Z,98826.97
2022-08-17T02:32:01.622Z,98828.63
2022-08-17T02:34:28.862Z,98828.38
2022-08-17T02:36:55.606Z,98826.84
2022-08-17T02:39:22.215Z,98825.50
2022-08-17T02:41:48.961Z,98828.25
2022-08-17T02:44:39.332Z,98828.00
2022-08-17T02:47:03.342Z,98832.41
2022-08-17T02:49:30.282Z,98834.88
2022-08-17T02:51:58.075Z,98834.88
2022-08-17T02:54:41.144Z,98832.16
2022-08-17T02:57:09.493Z,98830.25
2022-08-17T02:59:36.084Z,98826.22
2022-08-17T03:02:04.369Z,98826.44
2022-08-17T03:04:31.740Z,98831.41
2022-08-17T03:07:02.787Z,98825.75
2022-08-17T03:09:29.378Z,98822.22
2022-08-17T03:12:13.187Z,98827.59
2022-08-17T03:14:41.679Z,98829.78
2022-08-17T03:17:10.011Z,98829.78
2022-08-17T03:19:37.369Z,98832.25
2022-08-17T03:22:35.864Z,98829.31
2022-08-17T03:24:56.851Z,98836.34
2022-08-17T03:27:23.499Z,98832.56
2022-08-17T03:29:50.138Z,98832.56
2022-08-17T03:32:16.766Z,98832.31
2022-08-17T03:34:43.481Z,98833.44
2022-08-17T03:37:10.098Z,98830.50
2022-08-17T03:39:36.783Z,98831.56
2022-08-17T03:42:31.928Z,98834.81
2022-08-17T03:44:59.308Z,98829.63
2022-08-17T03:47:44.391Z,98825.63
2022-08-17T03:50:30.783Z,98830.44
2022-08-17T03:53:16.006Z,98831.84
2022-08-17T03:56:01.751Z,98828.31
2022-08-17T03:58:28.408Z,98829.94
2022-08-17T04:00:55.295Z,98830.50
2022-08-17T04:03:21.951Z,98830.78
2022-08-17T04:05:48.521Z,98833.78
2022-08-17T04:08:15.175Z,98837.00
2022-08-17T04:10:45.176Z,98833.50
2022-08-17T04:13:12.194Z,98831.84
2022-08-17T04:15:38.798Z,98825.03
2022-08-17T04:18:07.343Z,98834.00
2022-08-17T04:20:34.499Z,98832.13
2022-08-17T04:23:14.217Z,98845.06
2022-08-17T04:25:44.180Z,98846.94
2022-08-17T04:28:15.622Z,98847.72
2022-08-17T04:30:45.251Z,98846.88
2022-08-17T04:33:15.579Z,98849.78
2022-08-17T04:35:48.034Z,98847.56
2022-08-17T04:38:17.336Z,98853.41
2022-08-17T04:41:03.573Z,98848.09
2022-08-17T04:43:31.578Z,98843.34
2022-08-17T04:46:04.709Z,98852.13
2022-08-17T04:48:37.238Z,98851.41
2022-08-17T04:51:13.521Z,98862.63
2022-08-17T04:53:42.936Z,98861.91
2022-08-17T04:56:11.707Z,98861.09
2022-08-17T04:58:44.389Z,98860.41
2022-08-17T05:01:11.186Z,98862.38
2022-08-17T05:03:37.939Z,98865.34
2022-08-17T05:06:05.089Z,98857.28
2022-08-17T05:08:31.753Z,98865.47
2022-08-17T05:10:58.533Z,98862.72
2022-08-17T05:13:26.922Z,98870.31
2022-08-17T05:16:01.825Z,98854.50
2022-08-17T05:18:29.539Z,98851.22
2022-08-17T05:20:57.024Z,98855.25
2022-08-17T05:23:26.031Z,98859.88
2022-08-17T05:25:55.377Z,98861.97
2022-08-17T05:28:24.083Z,98858.72
2022-08-17T05:30:56.326Z,98858.81
2022-08-17T05:33:25.667Z,98859.06
2022-08-17T05:35:55.283Z,98873.63
2022-08-17T05:38:23.447Z,98873.56
2022-08-17T05:40:50.405Z,98867.25
2022-08-17T05:43:27.319Z,98871.97
2022-08-17T05:46:06.229Z,98865.53
2022-08-17T05:48:39.906Z,98860.75
2022-08-17T05:51:37.134Z,98867.03
2022-08-17T05:54:21.760Z,98876.91
2022-08-17T05:57:07.211Z,98871.22
2022-08-17T05:59:33.843Z,98865.97
2022-08-17T06:02:08.677Z,98870.69
2022-08-17T06:05:01.590Z,98860.75
2022-08-17T06:07:32.906Z,98861.72
2022-08-17T06:10:14.738Z,98855.28
2022-08-17T06:13:03.528Z,98856.75
2022-08-17T06:15:47.732Z,98854.69
2022-08-17T06:18:18.595Z,98869.78
2022-08-17T06:20:50.614Z,98858.50
2022-08-17T06:23:42.763Z,98865.41
2022-08-17T06:26:25.888Z,98865.53
2022-08-17T06:29:03.422Z,98868.59
2022-08-17T06:31:35.209Z,98873.84
2022-08-17T06:34:03.564Z,98876.38
2022-08-17T06:37:01.783Z,98875.47
2022-08-17T06:40:01.996Z,98869.25
2022-08-17T06:43:00.875Z,98871.78
2022-08-17T06:45:31.332Z,98875.06
2022-08-17T06:48:09.139Z,98861.59
2022-08-17T06:50:40.016Z,98862.44
2022-08-17T06:53:31.772Z,98863.50
2022-08-17T06:56:14.514Z,98870.09
2022-08-17T06:58:43.433Z,98865.53
2022-08-17T07:01:14.964Z,98866.84
2022-08-17T07:03:49.845Z,98872.91
2022-08-17T07:06:21.997Z,98872.16
2022-08-17T07:08:54.716Z,98878.75
2022-08-17T07:11:32.481Z,98873.16
2022-08-17T07:14:39.379Z,98881.69
2022-08-17T07:17:11.499Z,98877.00
2022-08-17T07:19:41.168Z,98875.63
2022-08-17T07:22:55.324Z,98873.31
2022-08-17T07:25:26.267Z,98871.84
2022-08-17T07:27:55.886Z,98878.13
2022-08-17T07:30:25.679Z,98872.63
2022-08-17T07:33:02.543Z,98874.47
2022-08-17T07:35:37.635Z,98872.81
2022-08-17T07:38:26.301Z,98876.22
2022-08-17T07:41:03.349Z,98874.25
2022-08-17T07:43:31.222Z,98888.00
2022-08-17T07:46:35.313Z,98869.59
2022-08-17T07:49:07.592Z,98866.88
2022-08-17T07:51:39.694Z,98866.38
2022-08-17T07:54:15.405Z,98867.19
2022-08-17T07:56:48.113Z,98865.00
2022-08-17T07:59:23.609Z,98870.34
2022-08-17T08:01:57.736Z,98866.28
2022-08-17T08:04:59.640Z,98858.66
2022-08-17T08:07:42.432Z,98866.31
2022-08-17T08:10:16.603Z,98856.72
2022-08-17T08:12:53.684Z,98856.00
2022-08-17T08:15:23.476Z,98858.03
2022-08-17T08:18:00.724Z,98852.97
2022-08-17T08:20:53.252Z,98850.75
2022-08-17T08:23:42.317Z,98849.78
2022-08-17T08:26:18.871Z,98847.56
2022-08-17T08:29:03.786Z,98844.19
2022-08-17T08:31:57.642Z,98842.38
2022-08-17T08:34:47.360Z,98844.75
2022-08-17T08:37:32.626Z,98852.75
2022-08-17T08:40:17.958Z,98850.34
2022-08-17T08:42:56.989Z,98850.91
2022-08-17T08:45:49.828Z,98848.91
2022-08-17T08:48:56.311Z,98854.69
2022-08-17T08:51:28.159Z,98844.41
2022-08-17T08:54:03.412Z,98848.94
2022-08-17T08:57:11.969Z,98853.66
2022-08-17T08:59:41.804Z,98848.75
2022-08-17T09:02:19.987Z,98849.28
2022-08-17T09:05:31.732Z,98839.34
2022-08-17T09:08:12.523Z,98839.00
2022-08-17T09:11:21.331Z,98849.66
2022-08-17T09:14:21.229Z,98844.38
2022-08-17T09:16:55.611Z,98846.13
2022-08-17T09:19:49.968Z,98840.72
2022-08-17T09:22:25.536Z,98845.53
2022-08-17T09:25:08.567Z,98841.84
2022-08-17T09:27:53.322Z,98855.50
2022-08-17T09:30:21.270Z,98842.25
2022-08-17T09:32:55.305Z,98840.78
2022-08-17T09:35:25.123Z,98845.91
2022-08-17T09:38:20.434Z,98841.81
2022-08-17T09:41:11.395Z,98841.97
2022-08-17T09:44:00.398Z,98836.66
2022-08-17T09:46:39.432Z,98836.84
2022-08-17T09:49:15.044Z,98831.91
2022-08-17T09:51:52.199Z,98840.41
2022-08-17T09:54:39.228Z,98826.72
2022-08-17T09:57:43.427Z,98827.22
2022-08-17T10:00:29.242Z,98829.31
2022-08-17T10:03:20.048Z,98832.59
2022-08-17T10:06:10.721Z,98813.66
2022-08-17T10:09:07.415Z,98806.56
2022-08-17T10:12:06.426Z,98806.66
2022-08-17T10:14:44.926Z,98804.25
2022-08-17T10:17:23.213Z,98811.25
2022-08-17T10:19:49.757Z,98804.94
2022-08-17T10:22:54.826Z,98803.53
2022-08-17T10:25:54.544Z,98799.69
2022-08-17T10:28:30.293Z,98806.09
2022-08-17T10:31:30.944Z,98797.00
2022-08-17T10:33:57.684Z,98794.59
2022-08-17T10:36:43.169Z,98803.72
2022-08-17T10:39:52.671Z,98794.59
2022-08-17T10:42:30.249Z,98792.16
2022-08-17T10:45:26.701Z,98787.06
2022-08-17T10:48:36.804Z,98785.44
2022-08-17T10:51:08.882Z,98781.91
2022-08-17T10:53:35.487Z,98784.72
2022-08-17T10:56:14.242Z,98780.75
2022-08-17T10:58:55.903Z,98775.25
2022-08-17T11:01:43.445Z,98777.66
2022-08-17T11:04:21.199Z,98780.09
2022-08-17T11:07:27.912Z,98770.56
2022-08-17T11:10:17.010Z,98783.66
2022-08-17T11:12:47.680Z,98777.69
2022-08-17T11:15:37.063Z,98767.75
2022-08-17T11:18:33.118Z,98765.75
2022-08-17T11:21:17.884Z,98771.28
2022-08-17T11:24:00.005Z,98767.69
2022-08-17T11:26:32.659Z,98759.00
2022-08-17T11:29:02.201Z,98749.09
2022-08-17T11:31:38.747Z,98757.81
2022-08-17T11:34:19.383Z,98756.97
2022-08-17T11:37:26.196Z,98764.47
2022-08-17T11:40:06.479Z,98758.88
2022-08-17T11:42:57.275Z,98753.00
2022-08-17T11:45:40.239Z,98753.78
2022-08-17T11:48:34.642Z,98747.84
2022-08-17T11:51:34.976Z,98743.91
2022-08-17T11:57:26.929Z,98741.53
2022-08-17T12:00:10.630Z,98746.66
2022-08-17T12:02:47.552Z,98749.81
2022-08-17T12:05:16.860Z,98747.00
2022-08-17T12:07:56.817Z,98729.44
2022-08-17T12:10:31.997Z,98729.03
2022-08-17T12:12:59.951Z,98725.03
2022-08-17T12:15:36.665Z,98724.38
2022-08-17T12:18:03.679Z,98717.16
2022-08-17T12:20:34.747Z,98724.75
2022-08-17T12:23:20.181Z,98729.13
2022-08-17T12:25:59.444Z,98723.53
2022-08-17T12:28:29.084Z,98722.31
2022-08-17T12:31:06.978Z,98725.56
2022-08-17T12:33:36.609Z,98712.88
2022-08-17T12:36:05.961Z,98700.44
2022-08-17T12:38:34.757Z,98701.59
2022-08-17T12:41:21.529Z,98699.47
2022-08-17T12:44:01.675Z,98704.84
2022-08-17T12:46:33.624Z,98701.03
2022-08-17T12:49:32.961Z,98692.50
2022-08-17T12:52:05.728Z,98697.44
2022-08-17T12:54:41.673Z,98700.44
2022-08-17T12:57:21.729Z,98701.59
2022-08-17T12:59:59.722Z,98698.41
2022-08-17T13:02:39.063Z,98693.28
2022-08-17T13:05:07.657Z,98696.84
2022-08-17T13:07:46.521Z,98688.63
2022-08-17T13:10:18.387Z,98691.16
2022-08-17T13:12:45.163Z,98690.19
2022-08-17T13:15:35.201Z,98684.09
2022-08-17T13:18:07.076Z,98686.22
2022-08-17T13:20:34.844Z,98681.88
2022-08-17T13:23:11.382Z,98682.66
2022-08-17T13:25:39.071Z,98681.28
2022-08-17T13:28:05.698Z,98684.03
2022-08-17T13:30:33.504Z,98677.31
2022-08-17T13:33:04.809Z,98676.75
2022-08-17T13:35:45.912Z,98672.22
2022-08-17T13:38:52.895Z,98675.28
2022-08-17T13:41:34.876Z,98675.44
2022-08-17T13:44:02.091Z,98670.03
2022-08-17T13:46:31.633Z,98669.44
2022-08-17T13:49:01.397Z,98671.81
2022-08-17T13:51:36.850Z,98666.63
2022-08-17T13:54:06.200Z,98664.91
2022-08-17T13:56:38.598Z,98672.78
2022-08-17T13:59:07.976Z,98660.41
2022-08-17T14:01:48.517Z,98651.22
2022-08-17T14:04:23.783Z,98657.84
2022-08-17T14:07:11.453Z,98652.66
2022-08-17T14:09:40.839Z,98652.28
2022-08-17T14:12:12.966Z,98658.34
2022-08-17T14:14:40.841Z,98659.84
2022-08-17T14:17:07.951Z,98657.72
2022-08-17T14:19:35.074Z,98664.41
2022-08-17T14:22:02.191Z,98659.22
2022-08-17T14:24:35.203Z,98661.47
2022-08-17T14:27:03.651Z,98664.81
2022-08-17T14:29:32.068Z,98663.81
2022-08-17T14:32:04.351Z,98658.34
2022-08-17T14:34:31.115Z,98653.31
2022-08-17T14:36:57.777Z,98661.72
2022-08-17T14:39:24.411Z,98652.94
2022-08-17T14:41:51.034Z,98645.63
2022-08-17T14:44:17.731Z,98646.03
2022-08-17T14:46:44.901Z,98649.31
2022-08-17T14:49:12.859Z,98644.66
2022-08-17T14:51:44.234Z,98651.19
2022-08-17T14:54:33.105Z,98651.97
2022-08-17T14:57:23.811Z,98665.91
2022-08-17T14:59:49.234Z,98659.19
2022-08-17T15:02:22.732Z,98657.13
2022-08-17T15:05:05.096Z,98654.00
2022-08-17T15:07:31.928Z,98659.47
2022-08-17T15:10:01.508Z,98657.34
2022-08-17T15:12:33.215Z,98649.63
2022-08-17T15:15:01.178Z,98650.75
2022-08-17T15:17:44.565Z,98655.94
2022-08-17T15:20:15.783Z,98659.31
2022-08-17T15:22:43.781Z,98659.69
2022-08-17T15:25:11.296Z,98650.53
2022-08-17T15:27:37.927Z,98651.16
2022-08-17T15:30:07.287Z,98647.53
2022-08-17T15:32:37.915Z,98651.22
2022-08-17T15:35:06.181Z,98653.31
2022-08-17T15:37:33.446Z,98657.47
2022-08-17T15:40:01.291Z,98654.84
2022-08-17T15:42:29.322Z,98652.22
2022-08-17T15:44:56.587Z,98662.94
2022-08-17T15:47:23.326Z,98663.00
2022-08-17T15:49:51.023Z,98651.09
2022-08-17T15:52:23.978Z,98654.34
2022-08-17T15:54:52.602Z,98659.19
2022-08-17T15:57:19.299Z,98657.22
2022-08-17T15:59:46.810Z,98657.25
2022-08-17T16:03:14.561Z,98659.31
2022-08-17T16:05:15.572Z,98657.66
2022-08-17T16:07:45.634Z,98653.69
2022-08-17T16:10:18.207Z,98654.88
2022-08-17T16:12:46.818Z,98657.97
2022-08-17T16:15:13.876Z,98657.88
2022-08-17T16:17:43.857Z,98659.81
2022-08-17T16:20:20.021Z,98661.44
2022-08-17T16:22:48.884Z,98652.66
2022-08-17T16:25:19.588Z,98654.31
2022-08-17T16:27:49.087Z,98654.31
2022-08-17T16:30:17.508Z,98651.59
2022-08-17T16:32:45.982Z,98663.22
2022-08-17T16:35:17.326Z,98660.53
2022-08-17T16:37:45.605Z,98660.94
2022-08-17T16:40:13.564Z,98659.38
2022-08-17T16:42:40.375Z,98654.22
2022-08-17T16:45:10.841Z,98657.41
2022-08-17T16:47:38.069Z,98662.13
2022-08-17T16:50:06.498Z,98666.84
2022-08-17T16:52:33.651Z,98661.28
2022-08-17T16:55:04.398Z,98662.38
2022-08-17T16:57:32.480Z,98668.13
2022-08-17T16:59:59.194Z,98667.63
2022-08-17T17:02:34.599Z,98668.72
2022-08-17T17:05:16.459Z,98671.75
2022-08-17T17:07:54.893Z,98672.41
2022-08-17T17:10:31.798Z,98667.56
2022-08-17T17:13:02.303Z,98675.38
2022-08-17T17:15:53.321Z,98668.44
2022-08-17T17:18:23.410Z,98669.72
2022-08-17T17:20:55.852Z,98677.38
2022-08-17T17:23:32.159Z,98678.31
2022-08-17T17:26:13.523Z,98681.22
2022-08-17T17:28:52.086Z,98681.00
2022-08-17T17:31:21.344Z,98671.72
2022-08-17T17:34:00.572Z,98677.91
2022-08-17T17:36:33.383Z,98678.53
2022-08-17T17:39:43.548Z,98673.16
2022-08-17T17:42:19.986Z,98679.53
2022-08-17T17:44:49.332Z,98679.97
2022-08-17T17:47:16.239Z,98681.31
2022-08-17T17:49:45.119Z,98683.84
2022-08-17T17:52:47.419Z,98684.44
2022-08-17T17:55:30.203Z,98681.34
2022-08-17T17:58:09.044Z,98677.06
2022-08-17T18:01:03.283Z,98684.88
2022-08-17T18:03:44.209Z,98692.38
2022-08-17T18:06:21.170Z,98690.84
2022-08-17T18:09:19.396Z,98697.63
2022-08-17T18:12:03.395Z,98709.41
2022-08-17T18:14:54.725Z,98704.28
2022-08-17T18:17:21.588Z,98708.19
2022-08-17T18:19:48.311Z,98712.63
2022-08-17T18:22:24.461Z,98706.34
2022-08-17T18:24:56.093Z,98712.63
2022-08-17T18:27:35.496Z,98711.88
2022-08-17T18:30:24.327Z,98711.94
2022-08-17T18:32:51.086Z,98716.66
2022-08-17T18:35:22.243Z,98718.22
2022-08-17T18:37:50.384Z,98712.72
2022-08-17T18:40:17.242Z,98722.94
2022-08-17T18:42:45.805Z,98719.06
2022-08-17T18:45:13.659Z,98714.84
2022-08-17T18:48:26.815Z,98721.28
2022-08-17T18:51:00.174Z,98722.88
2022-08-17T18:53:33.441Z,98729.13
2022-08-17T18:56:15.833Z,98736.78
2022-08-17T18:58:42.784Z,98737.59
2022-08-17T19:01:19.151Z,98735.28
2022-08-17T19:03:46.564Z,98729.56
2022-08-17T19:06:33.031Z,98721.78
2022-08-17T19:09:00.375Z,98724.06
2022-08-17T19:11:34.221Z,98729.00
2022-08-17T19:14:02.447Z,98730.84
2022-08-17T19:16:36.375Z,98723.03
2022-08-17T19:19:30.814Z,98736.50
2022-08-17T19:22:03.378Z,98732.56
2022-08-17T19:24:31.777Z,98731.16
2022-08-17T19:27:19.594Z,98730.22
2022-08-17T19:29:48.346Z,98722.56
2022-08-17T19:32:21.685Z,98722.94
2022-08-17T19:34:48.424Z,98728.50
2022-08-17T19:37:33.683Z,98731.06
2022-08-17T19:40:08.793Z,98727.72
2022-08-17T19:42:52.030Z,98717.13
2022-08-17T19:45:46.339Z,98709.78
2022-08-17T19:48:35.632Z,98709.22
2022-08-17T19:51:15.844Z,98709.75
2022-08-17T19:54:05.010Z,98701.28
2022-08-17T19:57:05.179Z,98709.81
2022-08-17T19:59:52.411Z,98717.25
2022-08-17T20:02:55.807Z,98712.13
2022-08-17T20:05:40.643Z,98725.50
2022-08-17T20:08:40.927Z,98722.50
2022-08-17T20:11:16.016Z,98730.75
2022-08-17T20:13:50.996Z,98725.16
2022-08-17T20:16:19.343Z,98731.94
2022-08-17T20:18:58.047Z,98739.97
2022-08-17T20:21:46.399Z,98737.44
2022-08-17T20:24:34.311Z,98730.53
2022-08-17T20:27:19.108Z,98728.59
2022-08-17T20:30:11.525Z,98731.53
2022-08-17T20:32:51.955Z,98737.78
2022-08-17T20:35:18.499Z,98732.19
2022-08-17T20:37:53.328Z,98732.66
2022-08-17T20:40:24.187Z,98733.81
2022-08-17T20:42:50.855Z,98725.59
2022-08-17T20:45:20.439Z,98723.22
2022-08-17T20:48:18.672Z,98719.53
2022-08-17T20:50:44.426Z,98727.38
2022-08-17T20:53:13.565Z,98723.53
2022-08-17T20:55:51.862Z,98736.97
2022-08-17T20:58:21.023Z,98741.47
2022-08-17T21:00:56.814Z,98757.22
2022-08-17T21:03:23.614Z,98760.56
2022-08-17T21:06:16.882Z,98772.28
2022-08-17T21:08:54.847Z,98783.84
2022-08-17T21:11:59.943Z,98785.91
2022-08-17T21:14:24.762Z,98786.50
2022-08-17T21:17:29.663Z,98794.38
2022-08-17T21:20:13.808Z,98786.75
2022-08-17T21:22:52.732Z,98800.09
2022-08-17T21:25:28.540Z,98798.16
2022-08-17T21:28:14.178Z,98808.25
2022-08-17T21:30:41.004Z,98810.63
2022-08-17T21:33:15.130Z,98823.00
2022-08-17T21:36:23.706Z,98819.59
2022-08-17T21:38:53.374Z,98815.91
2022-08-17T21:41:34.291Z,98808.06
2022-08-17T21:44:12.140Z,98812.00
2022-08-17T21:46:42.887Z,98807.97
2022-08-17T21:49:16.596Z,98803.66
2022-08-17T21:51:53.809Z,98797.88
2022-08-17T21:54:36.718Z,98794.16
2022-08-17T21:57:06.234Z,98788.97
2022-08-17T21:59:36.788Z,98792.81
2022-08-17T22:02:07.753Z,98786.59
2022-08-17T22:04:40.376Z,98787.19
2022-08-17T22:07:10.671Z,98791.50
2022-08-17T22:09:48.730Z,98799.97
2022-08-17T22:12:16.470Z,98801.41
2022-08-17T22:15:01.026Z,98805.06
2022-08-17T22:17:35.402Z,98806.31
2022-08-17T22:20:05.632Z,98802.41
2022-08-17T22:22:56.513Z,98808.28
2022-08-17T22:25:24.915Z,98802.47
2022-08-17T22:28:03.167Z,98798.25
2022-08-17T22:30:29.909Z,98799.19
2022-08-17T22:32:56.975Z,98801.72
2022-08-17T22:35:32.551Z,98800.69
2022-08-17T22:38:18.049Z,98795.16
2022-08-17T22:40:50.312Z,98782.81
2022-08-17T22:43:21.353Z,98787.56
2022-08-17T22:45:55.146Z,98791.38
2022-08-17T22:48:27.103Z,98791.50
2022-08-17T22:51:15.040Z,98781.41
2022-08-17T22:54:14.027Z,98773.66
2022-08-17T22:57:18.959Z,98771.19
2022-08-17T22:59:53.894Z,98765.53
2022-08-17T23:02:24.779Z,98766.97
2022-08-17T23:05:16.925Z,98761.91
2022-08-17T23:07:45.137Z,98755.38
2022-08-17T23:10:12.872Z,98758.72
2022-08-17T23:12:39.818Z,98756.59
2022-08-17T23:15:12.728Z,98757.09
2022-08-17T23:17:39.380Z,98755.09
2022-08-17T23:20:08.505Z,98746.44
2022-08-17T23:22:36.957Z,98744.44
2022-08-17T23:25:04.404Z,98753.41
2022-08-17T23:27:32.061Z,98755.31
2022-08-17T23:29:58.755Z,98745.00
2022-08-17T23:32:25.823Z,98748.84
2022-08-17T23:34:52.459Z,98747.84
2022-08-17T23:37:19.606Z,98741.91
2022-08-17T23:39:46.396Z,98733.53
2022-08-17T23:42:15.588Z,98738.78
2022-08-17T23:44:43.845Z,98729.31
2022-08-17T23:47:11.243Z,98731.31
2022-08-17T23:49:39.167Z,98721.69
2022-08-17T23:52:09.908Z,98713.63
2022-08-17T23:54:46.500Z,98714.81
2022-08-17T23:57:33.067Z,98705.06
